createdAt,value
2023-04-10T00:01:00.393Z,8.40
2023-04-10T00:03:49.162Z,7.10
2023-04-10T00:06:37.876Z,7.90
2023-04-10T00:09:29.064Z,6.80
2023-04-10T00:12:17.780Z,6.30
2023-04-10T00:15:07.300Z,6.30
2023-04-10T00:17:56.197Z,7.30
2023-04-10T00:20:44.818Z,6.80
2023-04-10T00:23:34.878Z,7.50
2023-04-10T00:26:26.358Z,8.00
2023-04-10T00:29:15.026Z,8.40
2023-04-10T00:32:03.653Z,9.20
2023-04-10T00:34:53.219Z,9.90
2023-04-10T00:37:41.975Z,10.70
2023-04-10T00:40:30.761Z,11.50
2023-04-10T00:43:21.567Z,11.40
2023-04-10T00:46:10.235Z,11.60
2023-04-10T00:48:59.104Z,11.50
2023-04-10T00:51:47.982Z,11.70
2023-04-10T00:54:37.500Z,11.70
2023-04-10T00:57:27.208Z,11.90
2023-04-10T01:00:18.008Z,12.40
2023-04-10T01:03:06.768Z,13.20
2023-04-10T01:06:06.983Z,14.30
2023-04-10T01:09:04.157Z,13.40
2023-04-10T01:11:58.666Z,12.90
2023-04-10T01:14:54.306Z,12.30
2023-04-10T01:17:51.795Z,11.90
2023-04-10T01:20:41.970Z,13.00
2023-04-10T01:23:57.769Z,13.20
2023-04-10T01:27:04.168Z,12.70
2023-04-10T01:29:57.602Z,11.30
2023-04-10T01:32:47.052Z,11.40
2023-04-10T01:35:37.405Z,11.10
2023-04-10T01:38:29.915Z,11.80
2023-04-10T01:41:20.949Z,11.20
2023-04-10T01:44:11.879Z,11.00
2023-04-10T01:47:02.996Z,12.50
2023-04-10T01:49:52.691Z,12.20
2023-04-10T01:52:42.317Z,10.90
2023-04-10T01:55:32.403Z,12.40
2023-04-10T01:58:21.130Z,11.80
2023-04-10T02:01:19.165Z,12.50
2023-04-10T02:04:16.555Z,11.80
2023-04-10T02:07:07.678Z,11.30
2023-04-10T02:10:01.412Z,11.90
2023-04-10T02:12:56.639Z,11.30
2023-04-10T02:15:48.898Z,12.20
2023-04-10T02:18:39.097Z,12.50
2023-04-10T02:21:29.662Z,13.50
2023-04-10T02:24:18.280Z,13.20
2023-04-10T02:27:06.884Z,13.40
2023-04-10T02:29:55.466Z,13.40
2023-04-10T02:32:44.289Z,14.60
2023-04-10T02:35:33.007Z,15.60
2023-04-10T02:38:22.979Z,16.30
2023-04-10T02:41:11.821Z,16.20
2023-04-10T02:44:00.415Z,16.30
2023-04-10T02:46:49.035Z,16.50
2023-04-10T02:49:37.804Z,17.10
2023-04-10T02:52:26.593Z,17.10
2023-04-10T02:55:16.773Z,16.50
2023-04-10T02:58:05.382Z,16.50
2023-04-10T03:00:54.043Z,17.50
2023-04-10T03:03:42.700Z,18.10
2023-04-10T03:06:31.467Z,17.70
2023-04-10T03:09:20.066Z,16.40
2023-04-10T03:12:10.047Z,15.30
2023-04-10T03:14:58.616Z,14.40
2023-04-10T03:17:47.551Z,14.90
2023-04-10T03:20:38.627Z,15.50
2023-04-10T03:23:27.172Z,13.80
2023-04-10T03:26:15.903Z,14.40
2023-04-10T03:29:05.832Z,13.60
2023-04-10T03:31:54.471Z,13.50
2023-04-10T03:34:43.032Z,13.80
2023-04-10T03:37:31.912Z,12.30
2023-04-10T03:40:20.872Z,12.20
2023-04-10T03:43:09.475Z,12.60
2023-04-10T03:45:59.495Z,12.20
2023-04-10T03:48:49.620Z,13.20
2023-04-10T03:51:38.219Z,14.40
2023-04-10T03:54:26.800Z,14.20
2023-04-10T03:57:15.400Z,14.50
2023-04-10T04:00:04.118Z,14.70
2023-04-10T04:02:55.377Z,14.90
2023-04-10T04:05:44.238Z,14.60
2023-04-10T04:08:32.794Z,15.50
2023-04-10T04:11:21.424Z,15.10
2023-04-10T04:14:10.071Z,16.10
2023-04-10T04:16:58.758Z,16.40
2023-04-10T04:19:48.755Z,15.40
2023-04-10T04:22:37.346Z,15.00
2023-04-10T04:25:26.190Z,15.80
2023-04-10T04:28:16.224Z,15.90
2023-04-10T04:31:04.859Z,16.30
2023-04-10T04:33:53.595Z,16.30
2023-04-10T04:36:43.895Z,16.90
2023-04-10T04:39:32.503Z,16.60
2023-04-10T04:42:21.098Z,16.10
2023-04-10T04:45:11.085Z,16.10
2023-04-10T04:47:59.735Z,16.30
2023-04-10T04:50:49.559Z,16.60
2023-04-10T04:53:39.522Z,15.80
2023-04-10T04:56:28.200Z,16.00
2023-04-10T04:59:16.769Z,15.10
2023-04-10T05:02:05.700Z,14.40
2023-04-10T05:04:54.389Z,15.10
2023-04-10T05:07:43.004Z,11.90
2023-04-10T05:10:33.015Z,11.20
2023-04-10T05:13:21.646Z,9.30
2023-04-10T05:16:10.733Z,6.50
2023-04-10T05:18:59.780Z,6.40
2023-04-10T05:21:48.435Z,5.90
2023-04-10T05:24:37.209Z,3.60
2023-04-10T05:27:27.633Z,4.10
2023-04-10T05:30:16.266Z,2.50
2023-04-10T05:33:04.899Z,3.70
2023-04-10T05:35:54.647Z,2.70
2023-04-10T05:38:43.231Z,1.00
2023-04-10T05:41:31.855Z,1.00
2023-04-10T05:44:21.820Z,1.00
2023-04-10T05:47:10.427Z,1.00
2023-04-10T05:49:59.017Z,1.00
2023-04-10T05:52:47.878Z,1.00
2023-04-10T05:55:36.439Z,1.00
2023-04-10T05:58:25.024Z,1.00
2023-04-10T06:01:15.051Z,1.00
2023-04-10T06:04:04.627Z,1.00
2023-04-10T06:06:53.430Z,1.00
2023-04-10T06:09:41.962Z,1.00
2023-04-10T06:12:30.775Z,1.00
2023-04-10T06:15:19.442Z,1.00
2023-04-10T06:18:09.439Z,1.00
2023-04-10T06:20:58.198Z,1.00
2023-04-10T06:23:46.991Z,1.00
2023-04-10T06:26:35.615Z,1.00
2023-04-10T06:29:24.888Z,1.00
2023-04-10T06:32:13.405Z,1.00
2023-04-10T06:35:03.370Z,1.00
2023-04-10T06:37:51.969Z,1.00
2023-04-10T06:40:40.502Z,1.00
2023-04-10T06:43:29.291Z,1.00
2023-04-10T06:46:18.023Z,1.00
2023-04-10T06:49:07.068Z,1.00
2023-04-10T06:51:57.251Z,1.00
2023-04-10T06:54:45.858Z,1.00
2023-04-10T06:57:34.537Z,1.00
2023-04-10T07:00:23.759Z,1.00
2023-04-10T07:03:12.409Z,1.00
2023-04-10T07:06:02.061Z,1.00
2023-04-10T07:08:52.553Z,1.00
2023-04-10T07:11:41.580Z,1.00
2023-04-10T07:14:30.410Z,1.00
2023-04-10T07:17:21.280Z,1.00
2023-04-10T07:20:11.416Z,1.00
2023-04-10T07:23:00.047Z,1.00
2023-04-10T07:25:52.889Z,1.00
2023-04-10T07:28:42.628Z,1.00
2023-04-10T07:31:33.188Z,1.00
2023-04-10T07:34:21.768Z,1.00
2023-04-10T07:56:24.797Z,1.00
2023-04-10T07:59:22.755Z,1.00
2023-04-10T08:02:11.657Z,1.00
2023-04-10T08:05:00.552Z,1.00
2023-04-10T08:07:49.248Z,1.00
2023-04-10T08:10:38.721Z,1.00
2023-04-10T08:13:27.361Z,1.00
2023-04-10T08:16:17.488Z,1.00
2023-04-10T08:19:06.773Z,1.00
2023-04-10T08:22:07.088Z,1.00
2023-04-10T08:25:05.523Z,1.00
2023-04-10T08:28:00.597Z,1.00
2023-04-10T08:31:06.602Z,1.00
2023-04-10T08:34:27.896Z,1.00
2023-04-10T08:40:22.371Z,1.00
2023-04-10T08:43:12.916Z,1.00
2023-04-10T08:46:13.327Z,1.00
2023-04-10T08:49:10.758Z,1.00
2023-04-10T08:52:01.781Z,1.00
2023-04-10T08:54:56.299Z,1.00
2023-04-10T08:57:54.337Z,1.00
2023-04-10T09:00:49.966Z,1.00
2023-04-10T09:03:42.547Z,1.00
2023-04-10T09:06:34.918Z,1.00
2023-04-10T09:09:43.977Z,1.00
2023-04-10T09:13:11.363Z,1.00
2023-04-10T09:16:05.510Z,1.00
2023-04-10T09:31:01.571Z,1.00
2023-04-10T09:38:27.767Z,1.00
2023-04-10T09:45:29.424Z,1.00
2023-04-10T09:48:27.331Z,1.00
2023-04-10T09:51:38.367Z,1.00
2023-04-10T09:54:41.517Z,1.00
2023-04-10T09:57:44.389Z,1.00
2023-04-10T10:04:35.266Z,1.00
2023-04-10T10:07:54.586Z,1.00
2023-04-10T10:14:33.136Z,1.00
2023-04-10T10:17:27.503Z,1.00
2023-04-10T10:21:05.314Z,1.00
2023-04-10T10:24:24.141Z,1.00
2023-04-10T10:57:07.429Z,1.00
2023-04-10T11:25:34.753Z,1.00
2023-04-10T11:29:05.516Z,1.00
2023-04-10T12:02:28.235Z,1.00
2023-04-10T12:05:47.612Z,1.00
2023-04-10T12:12:38.820Z,1.00
2023-04-10T12:15:28.724Z,1.00
2023-04-10T12:18:43.516Z,1.00
2023-04-10T12:21:43.987Z,1.00
2023-04-10T12:58:21.582Z,1.00
2023-04-10T13:01:11.951Z,1.00
2023-04-10T13:04:02.035Z,1.00
2023-04-10T13:06:52.955Z,1.00
2023-04-10T13:09:41.845Z,1.00
2023-04-10T13:12:49.787Z,1.00
2023-04-10T13:15:40.057Z,1.00
2023-04-10T13:18:30.912Z,1.00
2023-04-10T13:21:23.250Z,1.00
2023-04-10T13:24:11.821Z,1.00
2023-04-10T13:27:01.536Z,1.00
2023-04-10T13:29:50.092Z,1.00
2023-04-10T13:32:38.646Z,1.00
2023-04-10T13:35:28.624Z,1.00
2023-04-10T13:38:24.184Z,1.00
2023-04-10T13:41:13.079Z,1.00
2023-04-10T13:44:02.140Z,1.00
2023-04-10T13:46:52.298Z,1.00
2023-04-10T13:49:46.726Z,1.00
2023-04-10T13:52:36.974Z,1.00
2023-04-10T13:55:25.825Z,1.00
2023-04-10T13:58:14.485Z,1.00
2023-04-10T14:01:03.262Z,1.00
2023-04-10T14:03:52.057Z,1.00
2023-04-10T15:18:12.304Z,1.00
2023-04-10T15:21:17.342Z,1.00
2023-04-10T15:35:43.275Z,1.00
2023-04-10T15:46:38.849Z,1.00
2023-04-10T15:49:37.128Z,1.00
2023-04-10T15:52:31.914Z,1.00
2023-04-10T15:55:21.412Z,1.00
2023-04-10T15:58:10.630Z,1.00
2023-04-10T16:01:00.584Z,1.00
2023-04-10T16:03:51.828Z,1.00
2023-04-10T16:06:41.178Z,1.00
2023-04-10T16:09:31.849Z,1.00
2023-04-10T16:12:20.605Z,1.00
2023-04-10T16:15:10.490Z,1.00
2023-04-10T16:17:59.419Z,1.00
2023-04-10T16:20:48.089Z,1.00
2023-04-10T16:23:36.817Z,1.00
2023-04-10T16:26:29.016Z,1.00
2023-04-10T16:32:26.785Z,1.00
2023-04-10T16:35:17.936Z,1.00
2023-04-10T16:38:07.066Z,1.00
2023-04-10T16:40:56.004Z,1.00
2023-04-10T16:43:46.486Z,1.00
2023-04-10T16:46:35.694Z,1.00
2023-04-10T16:49:24.769Z,1.00
2023-04-10T16:52:13.739Z,1.00
2023-04-10T16:55:02.502Z,1.00
2023-04-10T16:57:51.456Z,1.00
2023-04-10T17:00:41.636Z,1.00
2023-04-10T17:03:30.884Z,1.00
2023-04-10T17:06:19.728Z,1.00
2023-04-10T17:09:08.273Z,1.00
2023-04-10T17:11:57.918Z,1.00
2023-04-10T17:14:46.534Z,1.00
2023-04-10T17:17:36.816Z,1.00
2023-04-10T17:20:25.571Z,1.00
2023-04-10T17:23:14.256Z,1.00
2023-04-10T17:26:05.781Z,1.00
2023-04-10T17:28:54.729Z,1.00
2023-04-10T17:31:43.690Z,1.00
2023-04-10T17:34:33.707Z,1.00
2023-04-10T17:37:22.911Z,1.00
2023-04-10T17:40:12.947Z,1.00
2023-04-10T17:43:01.719Z,1.00
2023-04-10T17:45:50.455Z,1.00
2023-04-10T17:48:39.218Z,1.00
2023-04-10T17:51:30.512Z,1.00
2023-04-10T17:54:19.271Z,1.00
2023-04-10T17:57:07.884Z,1.00
2023-04-10T17:59:56.572Z,1.00
2023-04-10T18:02:45.659Z,1.00
2023-04-10T18:05:36.871Z,1.00
2023-04-10T18:21:13.349Z,1.00
2023-04-10T18:24:02.087Z,1.00
2023-04-10T18:26:50.685Z,1.00
2023-04-10T18:29:39.290Z,1.00
2023-04-10T18:32:27.924Z,1.00
2023-04-10T18:35:16.636Z,1.00
2023-04-10T18:38:06.661Z,1.00
2023-04-10T18:40:57.527Z,1.00
2023-04-10T18:43:51.234Z,1.00
2023-04-10T18:46:57.579Z,1.00
2023-04-10T18:49:52.246Z,1.00
2023-04-10T18:52:40.803Z,1.00
2023-04-10T18:55:30.831Z,1.00
2023-04-10T18:58:19.550Z,1.00
2023-04-10T19:01:10.705Z,1.00
2023-04-10T19:03:59.785Z,1.00
2023-04-10T19:06:48.782Z,1.00
2023-04-10T19:09:37.367Z,1.00
2023-04-10T19:12:27.384Z,1.00
2023-04-10T19:15:16.064Z,1.00
2023-04-10T19:18:04.689Z,1.00
2023-04-10T19:20:53.695Z,1.00
2023-04-10T19:23:42.338Z,1.00
2023-04-10T19:26:30.954Z,1.70
2023-04-10T19:29:20.983Z,2.60
2023-04-10T19:32:10.074Z,3.90
2023-04-10T19:34:58.692Z,4.90
2023-04-10T19:37:47.285Z,6.40
2023-04-10T19:40:37.762Z,7.10
2023-04-10T19:43:26.548Z,7.90
2023-04-10T19:46:24.053Z,9.70
2023-04-10T19:49:13.535Z,10.20
2023-04-10T19:52:02.488Z,11.60
2023-04-10T19:54:51.092Z,11.80
2023-04-10T19:57:39.692Z,12.40
2023-04-10T20:00:28.259Z,12.40
2023-04-10T20:03:18.491Z,13.70
2023-04-10T20:06:08.561Z,14.70
2023-04-10T20:08:57.448Z,14.80
2023-04-10T20:11:46.088Z,15.20
2023-04-10T20:14:34.691Z,14.70
2023-04-10T20:17:23.577Z,14.30
2023-04-10T20:20:13.966Z,14.20
2023-04-10T20:23:02.538Z,13.50
2023-04-10T20:25:51.113Z,13.10
2023-04-10T20:28:39.788Z,13.10
2023-04-10T20:31:28.412Z,12.90
2023-04-10T20:34:17.009Z,12.00
2023-04-10T20:37:07.008Z,11.80
2023-04-10T20:39:55.636Z,11.00
2023-04-10T20:42:44.393Z,10.90
2023-04-10T20:45:32.950Z,10.50
2023-04-10T20:48:21.513Z,10.30
2023-04-10T20:51:10.903Z,9.70
2023-04-10T20:54:00.890Z,10.50
2023-04-10T20:56:50.565Z,10.50
2023-04-10T20:59:40.530Z,10.00
2023-04-10T21:02:29.338Z,10.10
2023-04-10T21:05:18.119Z,10.00
2023-04-10T21:08:06.858Z,9.90
2023-04-10T21:10:58.945Z,9.80
2023-04-10T21:13:47.541Z,13.40
2023-04-10T21:16:41.308Z,15.50
2023-04-10T21:19:29.940Z,17.10
2023-04-10T21:22:18.545Z,19.90
2023-04-10T21:25:08.151Z,18.00
2023-04-10T21:27:58.142Z,18.70
2023-04-10T21:30:46.737Z,17.60
2023-04-10T21:33:35.407Z,17.80
2023-04-10T21:36:24.014Z,16.60
2023-04-10T21:39:12.590Z,20.60
2023-04-10T21:42:01.174Z,22.70
2023-04-10T21:44:51.187Z,25.10
2023-04-10T21:47:39.766Z,26.40
2023-04-10T21:50:28.454Z,27.80
2023-04-10T21:53:17.027Z,33.90
2023-04-10T21:56:05.939Z,43.20
2023-04-10T21:58:54.818Z,46.10
2023-04-10T22:01:45.163Z,59.80
2023-04-10T22:04:34.685Z,72.20
2023-04-10T22:07:25.144Z,80.30
2023-04-10T22:10:13.793Z,87.10
2023-04-10T22:13:02.454Z,92.40
2023-04-10T22:15:51.075Z,97.40
2023-04-10T22:18:41.064Z,99.90
2023-04-10T22:21:29.662Z,99.90
2023-04-10T22:24:18.249Z,99.90
2023-04-10T22:27:08.120Z,99.90
2023-04-10T22:30:03.313Z,99.90
2023-04-10T22:32:56.680Z,99.90
2023-04-10T22:35:46.896Z,99.90
2023-04-10T22:38:35.664Z,99.90
2023-04-10T22:41:24.216Z,99.90
2023-04-10T22:44:14.017Z,99.90
2023-04-10T22:47:02.632Z,99.90
2023-04-10T22:49:51.577Z,99.90
2023-04-10T22:52:41.541Z,99.90
2023-04-10T22:55:30.170Z,99.90
2023-04-10T22:58:18.731Z,99.90
2023-04-10T23:01:08.426Z,99.90
2023-04-10T23:03:57.060Z,99.90
2023-04-10T23:06:45.640Z,99.90
2023-04-10T23:09:35.648Z,99.90
2023-04-10T23:12:24.211Z,99.90
2023-04-10T23:15:13.218Z,99.90
2023-04-10T23:18:01.871Z,99.90
2023-04-10T23:20:51.142Z,99.90
2023-04-10T23:23:39.716Z,99.90
2023-04-10T23:26:31.234Z,99.90
2023-04-10T23:29:19.789Z,99.90
2023-04-10T23:32:08.543Z,99.90
2023-04-10T23:34:57.127Z,99.90
2023-04-10T23:37:45.666Z,99.90
2023-04-10T23:40:34.338Z,99.90
2023-04-10T23:43:24.496Z,99.90
2023-04-10T23:46:13.122Z,99.90
2023-04-10T23:49:01.731Z,99.90
2023-04-10T23:51:50.280Z,99.90
2023-04-10T23:54:38.900Z,99.90
2023-04-10T23:57:27.640Z,99.90
